Time;durP1;ratioP1;P1;durP2;ratioP2;P2;SDS_P1;SDS_P2;PMS_P1;PMS_P2;Temp;Humidity;BMP_temperature;BMP_pressure;BME280_temperature;BME280_humidity;BME280_pressure;Samples;Min_cycle;Max_cycle;Signal;HPM_P1;HPM_P2
2021/12/11 00:02:19;;;;;;;38.20;18.47;;;;;;;6.27;87.78;96431.38;5049618;28;20216;-63
2021/12/11 00:04:51;;;;;;;23.73;11.67;;;;;;;6.21;88.00;96431.63;5053270;28;20752;-62
2021/12/11 00:07:20;;;;;;;31.17;14.83;;;;;;;6.12;88.15;96429.38;5062089;28;20210;-62
2021/12/11 00:09:53;;;;;;;24.73;13.33;;;;;;;6.17;87.97;96440.34;5050917;28;20738;-62
2021/12/11 00:12:33;;;;;;;22.23;12.60;;;;;;;5.98;87.58;96448.78;5068303;28;20588;-63
2021/12/11 00:15:11;;;;;;;19.80;10.20;;;;;;;5.94;87.93;96440.38;5052411;28;20298;-63
2021/12/11 00:17:39;;;;;;;17.40;8.40;;;;;;;6.05;88.68;96450.25;5048859;28;20222;-63
2021/12/11 00:20:15;;;;;;;12.90;7.57;;;;;;;5.97;88.46;96452.25;5048561;28;20222;-62
2021/12/11 00:22:43;;;;;;;12.43;7.40;;;;;;;5.94;87.89;96467.78;5049375;28;20294;-63
2021/12/11 00:25:14;;;;;;;13.70;7.17;;;;;;;5.35;88.61;96464.75;5047999;28;20208;-62
2021/12/11 00:27:44;;;;;;;13.10;7.40;;;;;;;5.22;90.77;96474.59;5049104;28;20748;-63
2021/12/11 00:30:30;;;;;;;14.23;7.67;;;;;;;5.52;90.90;96488.13;5048047;28;20199;-63
2021/12/11 00:33:27;;;;;;;13.47;7.50;;;;;;;5.53;89.32;96505.19;5048258;28;20199;-63
2021/12/11 00:35:55;;;;;;;19.77;11.47;;;;;;;5.55;90.45;96519.66;5047022;28;20206;-62
2021/12/11 00:38:33;;;;;;;19.10;11.57;;;;;;;5.33;89.89;96512.75;5047602;28;20636;-62
2021/12/11 00:41:05;;;;;;;19.03;11.60;;;;;;;5.25;90.16;96517.31;5048892;28;20272;-62
2021/12/11 00:43:35;;;;;;;20.10;12.93;;;;;;;5.26;91.46;96526.66;5048530;28;20231;-64
2021/12/11 00:46:10;;;;;;;21.27;12.73;;;;;;;4.83;92.92;96525.50;5047757;28;20202;-64
2021/12/11 00:48:38;;;;;;;19.93;12.80;;;;;;;4.80;93.68;96530.72;5048718;28;20199;-64
2021/12/11 00:51:12;;;;;;;21.13;12.43;;;;;;;4.68;94.17;96523.41;5047438;28;20206;-63
2021/12/11 00:53:45;;;;;;;16.80;12.00;;;;;;;4.77;93.35;96527.41;5048564;28;20200;-63
2021/12/11 00:56:16;;;;;;;19.30;11.10;;;;;;;4.93;93.76;96538.88;5048020;28;20796;-62
2021/12/11 00:58:50;;;;;;;16.73;10.63;;;;;;;5.17;93.44;96539.81;5047755;28;20267;-63
2021/12/11 01:01:21;;;;;;;15.27;10.67;;;;;;;5.36;92.17;96548.56;5048066;28;20194;-64
2021/12/11 01:03:56;;;;;;;17.53;10.27;;;;;;;5.33;90.33;96554.66;5047175;28;20783;-62
2021/12/11 01:06:29;;;;;;;13.13;9.47;;;;;;;5.39;90.31;96546.75;5048588;28;20204;-62
2021/12/11 01:09:04;;;;;;;15.00;9.43;;;;;;;5.28;89.07;96543.69;5047494;28;20278;-62
2021/12/11 01:11:37;;;;;;;15.67;9.03;;;;;;;5.16;89.58;96538.13;5048294;28;20621;-64
2021/12/11 01:14:31;;;;;;;12.80;7.83;;;;;;;4.90;89.81;96542.34;5048120;28;20735;-62
2021/12/11 01:17:20;;;;;;;13.77;8.87;;;;;;;5.02;90.41;96540.31;5046772;28;20199;-64
2021/12/11 01:19:54;;;;;;;17.80;10.93;;;;;;;5.04;90.01;96538.53;5048046;28;20186;-63
2021/12/11 01:25:13;;;;;;;15.13;9.50;;;;;;;4.71;90.46;96531.03;5047211;28;20199;-63
2021/12/11 01:27:44;;;;;;;13.53;8.90;;;;;;;4.82;91.64;96541.75;5048043;28;20234;-63
2021/12/11 01:30:16;;;;;;;10.70;7.40;;;;;;;4.94;90.63;96543.13;5045607;28;20209;-63
2021/12/11 01:32:43;;;;;;;14.30;8.87;;;;;;;5.07;91.07;96541.81;5047812;28;20205;-64
2021/12/11 01:35:13;;;;;;;13.73;7.50;;;;;;;5.17;90.11;96534.69;5047595;28;20294;-63
2021/12/11 01:37:40;;;;;;;10.13;7.10;;;;;;;5.26;89.44;96521.53;5046776;28;20773;-62
2021/12/11 01:40:11;;;;;;;14.07;7.83;;;;;;;5.43;89.75;96521.81;5047836;28;20314;-63
2021/12/11 01:42:40;;;;;;;10.37;6.93;;;;;;;5.40;88.59;96527.88;5046451;28;20315;-65
2021/12/11 01:45:11;;;;;;;12.20;7.70;;;;;;;5.37;86.95;96527.16;5048077;28;20206;-62
2021/12/11 01:47:42;;;;;;;12.93;6.97;;;;;;;5.39;87.13;96530.50;5046444;28;20207;-62
2021/12/11 01:50:25;;;;;;;10.60;6.77;;;;;;;5.35;87.21;96536.63;5047269;28;20201;-61
2021/12/11 01:53:23;;;;;;;15.40;8.47;;;;;;;5.12;87.82;96547.66;5046142;28;20688;-63
2021/12/11 01:56:17;;;;;;;13.00;8.33;;;;;;;4.94;88.09;96551.66;5041719;28;20193;-66
2021/12/11 01:59:16;;;;;;;15.23;8.17;;;;;;;4.98;88.86;96544.69;5047325;28;20719;-62
2021/12/11 02:02:12;;;;;;;9.43;6.13;;;;;;;4.91;87.16;96538.06;5039931;28;20198;-63
2021/12/11 02:04:43;;;;;;;8.60;5.30;;;;;;;4.58;89.06;96532.28;5044460;28;20206;-63
2021/12/11 02:07:17;;;;;;;7.83;5.00;;;;;;;4.43;89.16;96525.03;5047249;28;20202;-63
2021/12/11 02:09:50;;;;;;;8.03;4.87;;;;;;;4.48;89.13;96518.06;5047245;28;20210;-61
2021/12/11 02:12:21;;;;;;;6.67;4.70;;;;;;;4.53;89.28;96516.22;5045451;28;20204;-64
2021/12/11 02:14:52;;;;;;;10.33;5.33;;;;;;;4.57;89.86;96507.53;5047215;28;20241;-63
2021/12/11 02:17:30;;;;;;;9.30;5.47;;;;;;;4.68;90.06;96507.16;5045985;28;20238;-61
2021/12/11 02:20:00;;;;;;;7.67;4.23;;;;;;;4.81;89.95;96508.47;5047060;28;20289;-61
2021/12/11 02:22:37;;;;;;;5.90;4.67;;;;;;;4.90;88.40;96509.00;5046778;28;20255;-61
2021/12/11 02:25:12;;;;;;;9.50;5.00;;;;;;;4.94;89.62;96502.91;5046075;28;20780;-61
2021/12/11 02:27:55;;;;;;;7.63;5.23;;;;;;;4.85;89.01;96512.63;5047010;28;20290;-61
2021/12/11 02:30:45;;;;;;;7.03;4.83;;;;;;;5.01;89.04;96520.69;5046020;28;20740;-63
2021/12/11 02:33:20;;;;;;;10.70;5.53;;;;;;;4.97;88.23;96516.53;5044050;28;20199;-62
2021/12/11 02:36:10;;;;;;;6.50;4.83;;;;;;;4.82;89.61;96518.69;5046795;28;20194;-63
2021/12/11 02:39:04;;;;;;;9.43;6.90;;;;;;;4.87;89.84;96515.97;5045675;28;20288;-62
2021/12/11 02:41:57;;;;;;;10.30;5.90;;;;;;;4.89;88.89;96520.16;5043922;28;20199;-62
2021/12/11 02:44:47;;;;;;;10.47;6.67;;;;;;;4.84;89.75;96511.78;5046953;28;20229;-66
2021/12/11 02:47:37;;;;;;;13.63;8.33;;;;;;;4.76;89.50;96523.19;5045694;28;20291;-63
2021/12/11 02:50:14;;;;;;;16.27;9.03;;;;;;;4.65;89.21;96525.22;5046815;28;20194;-63
2021/12/11 02:52:49;;;;;;;15.30;8.50;;;;;;;4.48;89.76;96523.19;5047025;28;20202;-63
2021/12/11 02:55:26;;;;;;;10.63;7.10;;;;;;;4.50;90.86;96526.53;5045905;28;20287;-63
2021/12/11 02:57:59;;;;;;;11.57;6.77;;;;;;;4.52;89.80;96524.78;5046776;28;20229;-63
2021/12/11 03:00:34;;;;;;;10.20;5.97;;;;;;;4.51;89.58;96530.78;5045638;28;20197;-63
2021/12/11 03:03:07;;;;;;;6.97;4.63;;;;;;;4.51;89.93;96519.69;5046646;28;20701;-63
2021/12/11 03:05:46;;;;;;;8.73;5.03;;;;;;;4.52;89.95;96519.63;5046809;28;20997;-63
2021/12/11 03:08:17;;;;;;;10.13;6.03;;;;;;;4.54;89.61;96528.13;5045640;28;20293;-63
2021/12/11 03:10:49;;;;;;;15.13;6.10;;;;;;;4.46;90.33;96529.22;5046796;28;20291;-63
2021/12/11 03:13:17;;;;;;;14.60;6.07;;;;;;;4.44;89.94;96534.41;5045402;28;20230;-62
2021/12/11 03:15:44;;;;;;;19.13;6.57;;;;;;;4.54;89.61;96545.22;5046844;28;20199;-61
2021/12/11 03:18:13;;;;;;;10.03;5.70;;;;;;;4.56;90.09;96553.72;5045833;28;20738;-64
2021/12/11 03:20:42;;;;;;;19.27;6.57;;;;;;;4.61;89.03;96537.31;5046268;28;20187;-64
2021/12/11 03:23:09;;;;;;;30.60;6.63;;;;;;;4.26;89.27;96523.88;5047896;28;20764;-64
2021/12/11 03:25:38;;;;;;;19.20;8.00;;;;;;;4.09;91.06;96532.88;5049257;28;20229;-65
2021/12/11 03:28:07;;;;;;;24.80;7.90;;;;;;;3.82;92.32;96525.13;5050181;28;20305;-63
2021/12/11 03:30:40;;;;;;;13.33;7.57;;;;;;;3.68;93.42;96530.63;5049010;28;20206;-62
2021/12/11 03:33:13;;;;;;;44.37;12.40;;;;;;;3.50;94.41;96517.50;5050149;28;20193;-63
2021/12/11 03:35:41;;;;;;;41.03;12.87;;;;;;;3.30;95.78;96521.41;5049814;28;20281;-62
2021/12/11 03:38:10;;;;;;;40.03;11.17;;;;;;;3.33;96.06;96535.84;5049046;28;20198;-63
2021/12/11 03:40:39;;;;;;;15.83;7.47;;;;;;;3.37;95.52;96536.59;5050153;28;20200;-62
2021/12/11 03:43:08;;;;;;;34.50;10.07;;;;;;;3.27;94.87;96541.97;5048522;28;20703;-61
2021/12/11 03:45:38;;;;;;;21.17;9.33;;;;;;;3.12;95.13;96537.22;5049899;28;20194;-62
2021/12/11 03:48:22;;;;;;;21.20;9.70;;;;;;;3.10;96.04;96523.63;5048804;28;20289;-62
2021/12/11 03:50:50;;;;;;;20.50;9.87;;;;;;;3.07;96.23;96526.25;5049230;28;20193;-64
2021/12/11 03:53:18;;;;;;;17.43;9.13;;;;;;;3.14;96.90;96525.25;5049770;28;20239;-63
2021/12/11 03:55:52;;;;;;;16.93;9.87;;;;;;;3.02;96.52;96505.09;5048771;28;20277;-65
2021/12/11 03:58:20;;;;;;;17.17;9.33;;;;;;;3.24;96.38;96521.56;5049786;28;20241;-60
2021/12/11 04:00:55;;;;;;;17.10;10.03;;;;;;;3.36;96.27;96505.03;5048354;28;20719;-62
2021/12/11 04:03:25;;;;;;;19.73;9.47;;;;;;;3.36;96.67;96484.56;5048033;28;20283;-62
2021/12/11 04:05:54;;;;;;;19.60;11.00;;;;;;;3.36;97.18;96499.13;5049520;28;20714;-62
2021/12/11 04:08:25;;;;;;;18.70;10.63;;;;;;;3.34;97.09;96501.69;5048493;28;20186;-62
2021/12/11 04:10:53;;;;;;;18.93;10.27;;;;;;;3.35;96.76;96505.09;5049476;28;20201;-62
2021/12/11 04:13:20;;;;;;;22.07;11.47;;;;;;;3.54;96.72;96526.78;5046896;28;20194;-62
2021/12/11 04:15:50;;;;;;;17.80;10.93;;;;;;;3.70;95.92;96533.16;5049293;28;20206;-61
2021/12/11 04:18:17;;;;;;;17.93;10.43;;;;;;;3.95;95.00;96531.59;5046861;28;20611;-61
2021/12/11 04:20:46;;;;;;;13.83;9.63;;;;;;;3.89;94.09;96535.19;5051829;28;20304;-61
2021/12/11 04:23:16;;;;;;;17.20;10.37;;;;;;;3.75;94.73;96528.75;5057581;28;20209;-62
2021/12/11 04:25:46;;;;;;;18.83;11.87;;;;;;;3.84;94.41;96529.34;5051328;28;20189;-62
2021/12/11 04:28:17;;;;;;;17.13;10.10;;;;;;;3.91;94.31;96525.72;5073971;28;20825;-62
2021/12/11 04:30:47;;;;;;;15.43;10.10;;;;;;;3.83;94.44;96501.22;5060105;28;20293;-64
2021/12/11 04:33:15;;;;;;;17.83;9.43;;;;;;;3.75;94.88;96508.28;5067938;28;20229;-61
2021/12/11 04:35:43;;;;;;;16.47;9.13;;;;;;;3.84;95.69;96513.13;5066845;28;20224;-61
2021/12/11 04:38:12;;;;;;;16.57;8.83;;;;;;;3.99;95.29;96500.75;5068370;28;20181;-63
2021/12/11 04:40:47;;;;;;;18.47;10.17;;;;;;;3.91;94.45;96494.16;5058327;28;20216;-61
2021/12/11 04:43:17;;;;;;;17.67;9.93;;;;;;;3.96;94.26;96494.84;5047581;28;20259;-62
2021/12/11 04:45:46;;;;;;;17.27;9.13;;;;;;;4.09;94.60;96501.31;5048793;28;20195;-63
2021/12/11 04:48:35;;;;;;;14.10;8.73;;;;;;;4.29;94.44;96503.25;5047685;28;20205;-63
2021/12/11 04:51:15;;;;;;;14.67;9.07;;;;;;;4.47;92.75;96521.50;5048291;28;20684;-62
2021/12/11 04:54:36;;;;;;;17.23;9.40;;;;;;;4.46;92.75;96501.88;5048641;28;20212;-63
2021/12/11 05:12:05;;;;;;;15.23;9.40;;;;;;;4.92;90.41;96511.56;5048347;28;20277;-62
2021/12/11 05:14:34;;;;;;;20.80;12.20;;;;;;;4.96;90.22;96510.56;5047812;28;20225;-62
2021/12/11 05:17:02;;;;;;;31.37;17.43;;;;;;;4.57;91.36;96512.66;5047449;28;20282;-64
2021/12/11 05:19:29;;;;;;;19.90;12.77;;;;;;;4.69;91.82;96509.72;5047811;28;20281;-64
2021/12/11 05:21:56;;;;;;;21.87;12.83;;;;;;;4.68;91.47;96504.59;5046974;28;20198;-65
2021/12/11 05:24:24;;;;;;;20.10;13.33;;;;;;;4.72;91.29;96508.75;5048024;28;20206;-63
2021/12/11 05:26:51;;;;;;;23.73;15.17;;;;;;;4.72;91.90;96512.16;5058487;28;20217;-65
2021/12/11 05:29:18;;;;;;;25.50;14.80;;;;;;;4.79;91.25;96507.69;5067302;28;20206;-63
2021/12/11 05:31:45;;;;;;;18.70;12.07;;;;;;;4.73;91.66;96516.41;5065534;28;20197;-63
2021/12/11 05:34:13;;;;;;;18.57;11.70;;;;;;;4.58;91.77;96504.06;5067027;28;20202;-62
2021/12/11 05:36:41;;;;;;;18.10;11.50;;;;;;;4.44;91.77;96510.50;5067575;28;20618;-63
2021/12/11 05:39:16;;;;;;;25.20;12.87;;;;;;;4.31;93.00;96515.16;5066636;28;20608;-64
2021/12/11 05:41:45;;;;;;;27.83;14.57;;;;;;;4.35;94.81;96511.59;5067536;28;20677;-62
2021/12/11 05:44:16;;;;;;;27.73;13.93;;;;;;;4.43;95.09;96503.72;5066536;28;20276;-65
2021/12/11 05:46:43;;;;;;;33.90;14.47;;;;;;;4.48;93.57;96507.81;5066011;28;20204;-65
2021/12/11 05:49:11;;;;;;;39.37;15.47;;;;;;;4.46;94.83;96499.31;5067142;28;20284;-64
2021/12/11 05:51:41;;;;;;;52.17;15.70;;;;;;;4.40;94.71;96494.38;5066707;28;20580;-65
2021/12/11 05:54:15;;;;;;;40.17;14.47;;;;;;;4.45;94.61;96487.38;5066164;28;20661;-62
2021/12/11 05:56:43;;;;;;;40.13;14.17;;;;;;;4.47;94.96;96511.22;5064656;28;20579;-63
2021/12/11 05:59:14;;;;;;;43.77;16.83;;;;;;;4.41;95.18;96531.94;5067255;28;20258;-63
2021/12/11 06:01:56;;;;;;;46.37;15.97;;;;;;;4.51;94.26;96520.53;5065179;28;20263;-63
2021/12/11 06:04:28;;;;;;;50.00;16.77;;;;;;;4.52;94.74;96514.50;5066667;28;20217;-62
2021/12/11 06:06:55;;;;;;;49.70;14.97;;;;;;;4.37;95.19;96507.28;5067346;28;20189;-63
2021/12/11 06:09:25;;;;;;;29.30;12.73;;;;;;;4.37;95.54;96511.59;5066186;28;20273;-64
2021/12/11 06:11:57;;;;;;;114.73;25.07;;;;;;;4.21;95.75;96523.16;5065857;28;20221;-61
2021/12/11 06:14:25;;;;;;;71.07;22.03;;;;;;;4.07;96.64;96531.25;5066010;28;20660;-61
2021/12/11 06:17:00;;;;;;;31.30;16.37;;;;;;;4.11;96.75;96543.94;5066899;28;20202;-61
2021/12/11 06:19:28;;;;;;;66.03;19.27;;;;;;;4.17;96.85;96544.63;5066817;28;20699;-61
2021/12/11 06:21:56;;;;;;;43.77;18.27;;;;;;;4.22;97.00;96543.63;5066086;28;20213;-62
2021/12/11 06:24:26;;;;;;;118.50;19.77;;;;;;;4.12;95.92;96544.78;5067193;28;20578;-62
2021/12/11 06:26:55;;;;;;;166.47;17.73;;;;;;;3.92;96.89;96542.75;5065685;28;20445;-60
2021/12/11 06:29:23;;;;;;;99.77;14.90;;;;;;;3.96;95.90;96543.50;5066856;28;20206;-63
2021/12/11 06:31:50;;;;;;;83.23;14.77;;;;;;;3.96;97.34;96546.06;5066101;28;20306;-63
2021/12/11 06:34:18;;;;;;;84.23;11.53;;;;;;;3.82;97.72;96548.19;5066657;28;20214;-65
2021/12/11 06:36:46;;;;;;;78.50;13.27;;;;;;;3.99;97.89;96538.31;5066820;28;20213;-65
2021/12/11 06:39:19;;;;;;;85.17;16.60;;;;;;;3.97;97.04;96519.59;5065884;28;20597;-63
2021/12/11 06:41:50;;;;;;;61.60;13.83;;;;;;;4.10;96.44;96549.09;5066733;28;20209;-62
2021/12/11 06:44:19;;;;;;;93.03;15.27;;;;;;;3.82;95.79;96551.59;5065344;28;20555;-63
2021/12/11 06:46:48;;;;;;;28.47;11.13;;;;;;;3.97;97.45;96545.19;5066803;28;20288;-62
2021/12/11 06:49:16;;;;;;;24.63;11.93;;;;;;;4.11;96.32;96533.69;5064765;28;20875;-62
2021/12/11 06:51:43;;;;;;;23.80;12.43;;;;;;;4.32;97.01;96536.50;5064760;28;20217;-64
2021/12/11 06:54:10;;;;;;;29.50;14.77;;;;;;;4.53;95.12;96552.09;5081807;28;20195;-63
2021/12/11 06:56:40;;;;;;;31.47;15.97;;;;;;;4.55;94.13;96558.03;5065206;28;20313;-63
2021/12/11 06:59:09;;;;;;;37.87;12.27;;;;;;;4.50;93.56;96549.63;5069393;28;20220;-62
2021/12/11 07:01:36;;;;;;;50.70;12.37;;;;;;;4.30;92.71;96549.38;5069475;28;20581;-62
2021/12/11 07:04:07;;;;;;;76.87;22.97;;;;;;;4.06;94.48;96547.50;5070390;28;20267;-62
2021/12/11 07:06:41;;;;;;;26.30;14.73;;;;;;;3.93;96.16;96553.84;5069744;28;20209;-65
2021/12/11 07:09:11;;;;;;;28.27;15.97;;;;;;;4.29;96.15;96552.81;5069038;28;20200;-62
2021/12/11 07:11:42;;;;;;;31.40;17.17;;;;;;;4.50;94.59;96559.88;5069990;28;20211;-62
2021/12/11 07:14:11;;;;;;;35.23;18.27;;;;;;;4.70;94.01;96554.97;5068625;28;20281;-62
2021/12/11 07:16:39;;;;;;;32.93;16.17;;;;;;;4.78;92.64;96558.13;5068508;28;20700;-62
2021/12/11 07:19:08;;;;;;;33.33;17.73;;;;;;;4.90;92.72;96550.06;5068221;28;20201;-63
2021/12/11 07:21:36;;;;;;;28.87;15.37;;;;;;;4.93;91.51;96555.09;5069307;28;20193;-63
2021/12/11 07:24:07;;;;;;;34.87;17.57;;;;;;;5.10;92.41;96548.59;5069626;28;20206;-62
2021/12/11 07:26:35;;;;;;;37.70;18.07;;;;;;;5.13;91.45;96543.38;5068973;28;20355;-62
2021/12/11 07:29:10;;;;;;;41.47;19.23;;;;;;;5.08;91.59;96551.22;5068285;28;20197;-62
2021/12/11 07:31:38;;;;;;;37.60;18.43;;;;;;;5.27;91.36;96564.28;5068570;28;20686;-64
2021/12/11 07:34:06;;;;;;;43.57;19.07;;;;;;;4.91;90.25;96556.88;5069800;28;20904;-62
2021/12/11 07:36:34;;;;;;;36.03;19.30;;;;;;;4.94;91.41;96559.34;5068574;28;20201;-64
2021/12/11 07:39:06;;;;;;;35.57;17.73;;;;;;;4.93;91.34;96547.41;5068877;28;20856;-65
2021/12/11 07:41:33;;;;;;;39.47;20.17;;;;;;;5.01;92.32;96544.59;5069248;28;20583;-65
2021/12/11 07:44:02;;;;;;;45.40;22.77;;;;;;;4.96;91.80;96549.03;5068486;28;20657;-66
2021/12/11 07:46:30;;;;;;;41.90;22.70;;;;;;;5.05;91.89;96546.16;5069183;28;20194;-66
2021/12/11 07:48:58;;;;;;;31.40;18.63;;;;;;;5.07;91.59;96544.38;5067670;28;20199;-63
2021/12/11 07:51:28;;;;;;;34.67;17.60;;;;;;;4.92;91.69;96538.00;5051061;28;20304;-63
2021/12/11 07:53:58;;;;;;;37.17;18.50;;;;;;;4.78;92.33;96542.75;5083824;28;20297;-66
2021/12/11 07:56:27;;;;;;;40.83;18.93;;;;;;;4.66;93.34;96550.81;5068390;28;20216;-62
2021/12/11 07:58:59;;;;;;;35.50;17.50;;;;;;;4.61;93.80;96550.13;5068844;28;20222;-63
2021/12/11 08:01:28;;;;;;;55.53;25.37;;;;;;;4.65;94.23;96549.16;5066234;28;20261;-63
2021/12/11 08:03:59;;;;;;;48.93;23.07;;;;;;;4.74;94.21;96548.84;5067298;28;20719;-62
2021/12/11 08:06:28;;;;;;;36.20;18.00;;;;;;;4.83;94.91;96537.47;5067922;28;20289;-62
2021/12/11 08:08:56;;;;;;;33.17;16.33;;;;;;;4.87;94.76;96519.38;5064880;28;20229;-62
2021/12/11 08:11:28;;;;;;;30.93;15.70;;;;;;;4.93;95.27;96521.75;5066349;28;20598;-62
2021/12/11 08:13:57;;;;;;;38.83;18.20;;;;;;;5.13;94.54;96544.19;5067874;28;20857;-65
2021/12/11 08:16:32;;;;;;;31.63;16.40;;;;;;;5.38;93.46;96544.25;5067198;28;20222;-65
2021/12/11 08:19:01;;;;;;;30.30;15.50;;;;;;;5.49;92.76;96530.16;5067353;28;20259;-64
2021/12/11 08:21:29;;;;;;;28.77;16.80;;;;;;;5.43;91.96;96506.41;5068150;28;20259;-63
2021/12/11 08:23:58;;;;;;;34.83;16.27;;;;;;;5.52;92.03;96522.31;5083206;28;20292;-61
2021/12/11 08:26:25;;;;;;;31.47;17.33;;;;;;;5.49;91.54;96522.44;5083150;28;20207;-62
2021/12/11 08:28:53;;;;;;;30.90;15.67;;;;;;;5.45;92.77;96530.31;5068063;28;20417;-63
2021/12/11 08:31:22;;;;;;;35.37;18.80;;;;;;;5.45;92.08;96518.31;5067190;28;20257;-64
2021/12/11 08:33:50;;;;;;;33.87;18.37;;;;;;;5.41;93.59;96526.16;5068552;28;20562;-63
2021/12/11 08:36:17;;;;;;;32.10;16.80;;;;;;;5.47;92.80;96523.38;5066664;28;20197;-64
2021/12/11 08:38:45;;;;;;;28.93;14.77;;;;;;;5.57;92.49;96517.03;5066268;28;20274;-66
2021/12/11 08:41:15;;;;;;;31.43;18.07;;;;;;;5.59;91.98;96512.69;5066936;28;20224;-63
2021/12/11 08:43:46;;;;;;;36.33;19.07;;;;;;;5.67;92.47;96520.97;5066914;28;20224;-64
2021/12/11 08:46:23;;;;;;;34.00;17.23;;;;;;;5.87;91.35;96503.16;5065854;28;20199;-66
2021/12/11 08:48:50;;;;;;;32.30;18.13;;;;;;;5.81;91.27;96505.94;5064865;28;20272;-65
2021/12/11 08:51:26;;;;;;;36.90;20.43;;;;;;;5.78;91.23;96516.28;5067290;28;20674;-63
2021/12/11 08:53:54;;;;;;;37.57;19.73;;;;;;;5.66;92.10;96511.59;5066534;28;20929;-62
2021/12/11 08:56:21;;;;;;;38.33;19.30;;;;;;;5.59;92.38;96521.22;5067235;28;20295;-62
2021/12/11 08:58:49;;;;;;;31.13;17.37;;;;;;;5.44;92.30;96495.25;5067455;28;20203;-63
2021/12/11 09:01:24;;;;;;;30.60;16.93;;;;;;;5.62;93.18;96494.63;5066422;28;20228;-62
2021/12/11 09:04:06;;;;;;;27.93;16.50;;;;;;;5.48;92.61;96486.56;5065682;28;20195;-62
2021/12/11 09:06:39;;;;;;;31.23;17.43;;;;;;;5.38;92.74;96490.34;5066154;28;20215;-61
2021/12/11 09:09:30;;;;;;;29.03;17.23;;;;;;;5.44;94.04;96488.38;5066601;28;20375;-61
2021/12/11 09:12:09;;;;;;;27.40;16.17;;;;;;;5.55;93.01;96485.44;5066890;28;20579;-63
2021/12/11 09:14:45;;;;;;;31.37;15.93;;;;;;;5.81;93.08;96477.66;5065776;28;20693;-61
2021/12/11 09:17:21;;;;;;;30.70;16.47;;;;;;;5.86;90.90;96474.94;5066861;28;20602;-62
2021/12/11 09:19:53;;;;;;;32.80;17.33;;;;;;;6.26;90.15;96470.84;5064803;28;20827;-62
2021/12/11 09:22:55;;;;;;;31.70;18.27;;;;;;;6.57;89.18;96462.78;5066261;28;20284;-61
2021/12/11 09:25:31;;;;;;;31.23;18.57;;;;;;;6.82;88.25;96452.34;5066753;28;20204;-62
2021/12/11 09:28:13;;;;;;;33.33;18.00;;;;;;;6.89;88.34;96461.47;5065693;28;20709;-65
2021/12/11 09:30:44;;;;;;;33.00;17.20;;;;;;;6.98;88.11;96468.84;5066335;28;20329;-62
2021/12/11 09:33:15;;;;;;;29.53;17.93;;;;;;;7.01;87.50;96451.53;5065568;28;20197;-63
2021/12/11 09:35:52;;;;;;;34.40;20.33;;;;;;;7.10;87.65;96440.03;5065657;28;20291;-64
2021/12/11 09:38:38;;;;;;;36.70;19.37;;;;;;;7.12;87.70;96439.06;5066607;28;20187;-66
2021/12/11 09:41:18;;;;;;;33.07;18.80;;;;;;;6.97;88.09;96431.97;5064010;28;20624;-62
2021/12/11 09:43:54;;;;;;;32.17;18.90;;;;;;;6.99;88.07;96430.16;5048876;28;20232;-62
2021/12/11 09:46:29;;;;;;;41.37;21.47;;;;;;;7.04;87.39;96435.13;5066116;28;20204;-64
2021/12/11 09:48:57;;;;;;;39.53;21.00;;;;;;;6.95;87.57;96414.91;5065299;28;20305;-63
2021/12/11 09:51:30;;;;;;;45.63;25.57;;;;;;;7.06;87.82;96426.44;5066421;28;20284;-65
2021/12/11 09:54:02;;;;;;;43.77;25.20;;;;;;;7.15;88.54;96420.06;5064935;28;20201;-65
2021/12/11 09:56:47;;;;;;;45.73;24.70;;;;;;;7.18;88.26;96427.66;5066096;28;20536;-63
2021/12/11 09:59:19;;;;;;;43.73;24.17;;;;;;;7.26;88.38;96416.13;5066056;28;20201;-63
2021/12/11 10:01:51;;;;;;;32.73;18.73;;;;;;;7.07;88.56;96409.25;5065323;28;20642;-64
2021/12/11 10:05:00;;;;;;;31.37;21.53;;;;;;;7.22;89.18;96400.88;5066790;28;20235;-65
2021/12/11 10:08:32;;;;;;;28.27;15.93;;;;;;;7.30;89.35;96397.06;5065897;28;20251;-62
2021/12/11 10:11:21;;;;;;;28.83;15.27;;;;;;;7.27;89.81;96396.38;5064362;28;20231;-64
2021/12/11 10:14:05;;;;;;;19.63;13.07;;;;;;;7.18;89.67;96389.88;5065671;28;20216;-63
2021/12/11 10:16:36;;;;;;;24.73;13.60;;;;;;;7.27;91.13;96396.38;5064273;28;20229;-63
2021/12/11 10:19:05;;;;;;;23.67;13.80;;;;;;;7.23;90.42;96384.53;5063455;28;20204;-62
2021/12/11 10:21:39;;;;;;;26.53;13.93;;;;;;;7.17;92.08;96377.09;5065910;28;20248;-62
2021/12/11 10:24:12;;;;;;;30.27;16.70;;;;;;;7.26;92.27;96384.38;5046362;28;21072;-63
2021/12/11 10:26:40;;;;;;;32.73;18.53;;;;;;;7.19;91.63;96370.94;5065659;28;20204;-64
2021/12/11 10:29:10;;;;;;;31.53;19.10;;;;;;;7.37;91.80;96371.91;5080852;28;20228;-62
2021/12/11 10:31:45;;;;;;;33.23;18.97;;;;;;;7.44;92.30;96360.41;5063775;28;20663;-63
2021/12/11 10:34:16;;;;;;;36.43;21.50;;;;;;;7.45;91.68;96367.25;5069286;28;20185;-62
2021/12/11 10:36:57;;;;;;;47.10;21.83;;;;;;;7.35;92.46;96347.94;5069108;28;20209;-64
2021/12/11 10:39:25;;;;;;;26.20;17.30;;;;;;;7.45;93.03;96364.66;5070923;28;20634;-64
2021/12/11 10:41:53;;;;;;;24.00;16.77;;;;;;;7.47;92.95;96347.41;5067967;28;20311;-63
2021/12/11 10:44:32;;;;;;;26.60;16.43;;;;;;;7.55;93.18;96349.63;5069733;28;20204;-62
2021/12/11 10:47:06;;;;;;;20.90;13.73;;;;;;;7.62;93.08;96348.44;5070030;28;20645;-62
2021/12/11 10:49:36;;;;;;;24.30;15.57;;;;;;;7.69;93.44;96352.41;5068642;28;20599;-62
2021/12/11 10:52:22;;;;;;;21.33;13.23;;;;;;;7.82;92.99;96349.22;5069692;28;20193;-61
2021/12/11 10:54:52;;;;;;;21.63;12.00;;;;;;;7.92;92.65;96349.63;5068670;28;20189;-62
2021/12/11 10:57:20;;;;;;;19.20;12.30;;;;;;;8.12;91.52;96347.78;5068943;28;20215;-62
2021/12/11 10:59:52;;;;;;;18.33;8.77;;;;;;;8.40;90.19;96341.34;5069332;28;20755;-65
2021/12/11 11:02:26;;;;;;;17.43;9.60;;;;;;;8.50;89.26;96339.97;5084228;28;20270;-65
2021/12/11 11:05:01;;;;;;;20.70;9.77;;;;;;;8.58;88.73;96340.44;5069908;28;20198;-63
2021/12/11 11:07:29;;;;;;;18.07;10.03;;;;;;;8.67;88.57;96342.59;5068794;28;20207;-62
2021/12/11 11:10:03;;;;;;;13.03;8.03;;;;;;;8.69;89.15;96344.19;5068636;28;20232;-62
2021/12/11 11:12:30;;;;;;;21.10;10.30;;;;;;;8.71;89.53;96350.09;5068758;28;20294;-62
2021/12/11 11:14:58;;;;;;;16.53;9.60;;;;;;;8.64;89.44;96332.41;5066995;28;20197;-62
2021/12/11 11:17:31;;;;;;;23.90;12.50;;;;;;;8.77;89.93;96336.03;5067778;28;20246;-65
2021/12/11 11:20:04;;;;;;;19.43;8.67;;;;;;;8.84;89.45;96335.66;5067115;28;20177;-64
2021/12/11 11:22:35;;;;;;;16.43;7.30;;;;;;;8.91;89.62;96325.84;5068212;28;20197;-62
2021/12/11 11:25:20;;;;;;;14.17;8.63;;;;;;;8.93;89.81;96321.44;5068391;28;20358;-63
2021/12/11 11:27:52;;;;;;;15.43;8.60;;;;;;;8.92;90.52;96320.59;5067977;28;20208;-62
2021/12/11 11:30:25;;;;;;;18.67;8.17;;;;;;;8.93;91.33;96324.03;5069328;28;20280;-62
2021/12/11 11:32:52;;;;;;;15.10;8.67;;;;;;;8.94;91.77;96312.81;5066960;28;20506;-62
2021/12/11 11:35:22;;;;;;;20.83;8.80;;;;;;;8.94;92.64;96308.44;5069290;28;20181;-60
2021/12/11 11:37:54;;;;;;;20.27;9.30;;;;;;;8.87;93.25;96307.13;5068189;28;20186;-62
2021/12/11 11:40:26;;;;;;;17.60;8.93;;;;;;;8.98;93.43;96315.13;5068600;28;20661;-61
2021/12/11 11:42:54;;;;;;;17.17;8.57;;;;;;;8.87;94.04;96301.09;5068878;28;20312;-62
2021/12/11 11:45:22;;;;;;;15.50;7.37;;;;;;;8.96;94.59;96303.25;5068282;28;20649;-63
2021/12/11 11:47:50;;;;;;;14.87;6.50;;;;;;;9.02;95.12;96301.19;5067497;28;20190;-65
2021/12/11 11:50:20;;;;;;;13.97;8.70;;;;;;;8.99;95.45;96287.56;5067413;28;20205;-62
2021/12/11 11:52:48;;;;;;;15.90;8.43;;;;;;;9.02;95.96;96295.16;5068503;28;20299;-62
2021/12/11 11:55:21;;;;;;;16.47;9.87;;;;;;;9.08;96.12;96281.94;5068359;28;20201;-63
2021/12/11 11:57:51;;;;;;;26.30;18.60;;;;;;;9.11;96.63;96292.09;5068662;28;20284;-63
2021/12/11 12:00:32;;;;;;;18.40;8.50;;;;;;;9.08;96.72;96281.94;5068668;28;20205;-62
2021/12/11 12:03:01;;;;;;;12.57;7.47;;;;;;;9.05;97.09;96253.69;5067574;28;20890;-61
2021/12/11 12:05:31;;;;;;;24.50;11.63;;;;;;;9.26;97.29;96275.81;5069323;28;20280;-63
2021/12/11 12:07:58;;;;;;;18.13;10.27;;;;;;;9.35;97.23;96259.81;5066217;28;20208;-62
2021/12/11 12:10:27;;;;;;;19.07;8.90;;;;;;;9.44;97.00;96259.31;5068616;28;20190;-61
2021/12/11 12:12:54;;;;;;;16.77;8.37;;;;;;;9.49;97.14;96259.91;5067058;28;20637;-62
2021/12/11 12:15:43;;;;;;;19.30;7.97;;;;;;;9.59;96.79;96260.25;5067847;28;20220;-63